createdAt,value
2018-08-04T00:00:15.499Z,30.0
2018-08-04T00:03:15.867Z,29.9
2018-08-04T00:06:15.205Z,29.9
2018-08-04T00:09:15.548Z,29.9
2018-08-04T00:12:15.009Z,29.8
2018-08-04T00:15:15.372Z,29.8
2018-08-04T00:18:15.804Z,29.8
2018-08-04T00:21:15.205Z,29.7
2018-08-04T00:24:15.553Z,29.7
2018-08-04T00:27:15.856Z,29.6
2018-08-04T00:30:15.260Z,29.7
2018-08-04T00:33:15.581Z,29.7
2018-08-04T00:36:15.878Z,29.7
2018-08-04T00:39:15.380Z,29.6
2018-08-04T00:42:15.720Z,29.6
2018-08-04T00:45:15.281Z,29.6
2018-08-04T00:48:15.579Z,29.6
2018-08-04T00:51:15.994Z,29.5
2018-08-04T00:54:15.183Z,29.5
2018-08-04T00:57:15.571Z,29.5
2018-08-04T01:00:15.931Z,29.4
2018-08-04T01:03:15.225Z,29.4
2018-08-04T01:06:15.775Z,29.4
2018-08-04T01:09:15.009Z,29.3
2018-08-04T01:12:15.383Z,29.2
2018-08-04T01:15:15.845Z,29.2
2018-08-04T01:18:15.279Z,29.2
2018-08-04T01:21:15.717Z,29.2
2018-08-04T01:24:15.055Z,29.2
2018-08-04T01:27:15.334Z,29.1
2018-08-04T01:30:15.648Z,29.1
2018-08-04T01:33:15.025Z,29.1
2018-08-04T01:36:15.410Z,29.1
2018-08-04T01:39:15.773Z,29.1
2018-08-04T01:42:15.072Z,29.1
2018-08-04T01:45:15.448Z,29.1
2018-08-04T01:48:15.809Z,29.0
2018-08-04T01:51:15.146Z,29.0
2018-08-04T01:54:15.501Z,28.9
2018-08-04T01:57:15.839Z,28.9
2018-08-04T02:00:15.260Z,28.9
2018-08-04T02:03:15.522Z,28.9
2018-08-04T02:06:15.807Z,28.9
2018-08-04T02:09:15.102Z,28.9
2018-08-04T02:12:15.412Z,28.8
2018-08-04T02:15:15.945Z,28.8
2018-08-04T02:18:15.375Z,28.8
2018-08-04T02:21:15.910Z,28.9
2018-08-04T02:24:15.252Z,28.9
2018-08-04T02:27:15.514Z,28.8
2018-08-04T02:30:15.871Z,28.8
2018-08-04T02:33:15.194Z,28.7
2018-08-04T02:36:15.656Z,28.7
2018-08-04T02:39:15.904Z,28.7
2018-08-04T02:42:15.266Z,28.7
2018-08-04T02:45:15.567Z,28.7
2018-08-04T02:48:15.813Z,28.6
2018-08-04T02:51:15.046Z,28.6
2018-08-04T02:54:15.377Z,28.6
2018-08-04T02:57:15.793Z,28.6
2018-08-04T03:00:15.102Z,28.6
2018-08-04T03:03:15.561Z,28.5
2018-08-04T03:06:15.972Z,28.5
2018-08-04T03:09:15.969Z,28.4
2018-08-04T03:12:15.217Z,28.4
2018-08-04T03:15:15.356Z,28.4
2018-08-04T03:18:15.636Z,28.4
2018-08-04T03:21:15.092Z,28.3
2018-08-04T03:24:15.422Z,28.3
2018-08-04T03:27:15.671Z,28.3
2018-08-04T03:30:15.133Z,28.2
2018-08-04T03:33:15.524Z,28.2
2018-08-04T03:36:15.846Z,28.2
2018-08-04T03:39:15.902Z,28.2
2018-08-04T03:42:15.191Z,28.2
2018-08-04T03:45:15.403Z,28.2
2018-08-04T03:48:15.655Z,28.1
2018-08-04T03:51:15.027Z,28.0
2018-08-04T03:54:15.421Z,28.0
2018-08-04T03:57:15.831Z,28.0
2018-08-04T04:00:15.100Z,28.0
2018-08-04T04:03:15.541Z,28.1
2018-08-04T04:06:15.987Z,28.2
2018-08-04T04:09:15.389Z,28.2
2018-08-04T04:12:15.689Z,28.2
2018-08-04T04:15:15.038Z,28.2
2018-08-04T04:18:15.407Z,28.2
2018-08-04T04:21:15.646Z,28.2
2018-08-04T04:24:15.083Z,28.2
2018-08-04T04:27:15.870Z,28.1
2018-08-04T04:30:15.082Z,28.1
2018-08-04T04:33:15.539Z,28.1
2018-08-04T04:36:15.046Z,28.2
2018-08-04T04:39:15.363Z,28.2
2018-08-04T04:42:15.720Z,28.2
2018-08-04T04:45:15.990Z,28.2
2018-08-04T04:48:15.276Z,28.2
2018-08-04T04:51:15.545Z,28.2
2018-08-04T04:54:15.921Z,28.2
2018-08-04T04:57:15.361Z,28.3
2018-08-04T05:00:15.960Z,28.4
2018-08-04T05:03:15.348Z,28.4
2018-08-04T05:06:15.669Z,28.4
2018-08-04T05:09:14.997Z,28.5
2018-08-04T05:12:15.599Z,28.5
2018-08-04T05:15:15.975Z,28.6
2018-08-04T05:18:15.378Z,28.7
2018-08-04T05:21:15.945Z,28.8
2018-08-04T05:24:15.376Z,29.0
2018-08-04T05:27:15.799Z,29.2
2018-08-04T05:30:15.150Z,29.4
2018-08-04T05:33:15.721Z,29.7
2018-08-04T05:36:15.163Z,29.9
2018-08-04T05:39:15.513Z,30.2
2018-08-04T05:42:15.826Z,30.4
2018-08-04T05:45:15.351Z,30.6
2018-08-04T05:48:15.807Z,30.8
2018-08-04T05:51:15.248Z,31.0
2018-08-04T05:54:15.816Z,31.1
2018-08-04T05:57:15.225Z,31.3
2018-08-04T06:00:15.841Z,31.6
2018-08-04T06:03:15.671Z,31.7
2018-08-04T06:06:15.378Z,31.9
2018-08-04T06:09:16.073Z,32.2
2018-08-04T06:12:15.704Z,32.3
2018-08-04T06:15:15.557Z,32.5
2018-08-04T06:18:15.541Z,32.7
2018-08-04T06:21:15.413Z,33.0
2018-08-04T06:24:16.156Z,33.2
2018-08-04T06:27:16.149Z,33.4
2018-08-04T06:30:15.959Z,33.6
2018-08-04T06:33:15.834Z,33.9
2018-08-04T06:36:15.585Z,34.2
2018-08-04T06:39:15.398Z,34.5
2018-08-04T06:42:16.084Z,34.8
2018-08-04T06:45:15.975Z,35.0
2018-08-04T06:48:15.724Z,35.4
2018-08-04T06:51:15.595Z,35.9
2018-08-04T06:54:16.335Z,36.6
2018-08-04T06:57:16.354Z,37.4
2018-08-04T07:00:16.143Z,38.5
2018-08-04T07:03:16.298Z,39.9
2018-08-04T07:06:15.942Z,41.3
2018-08-04T07:09:15.762Z,42.7
2018-08-04T07:12:15.580Z,44.4
2018-08-04T07:15:15.593Z,46.0
2018-08-04T07:18:15.505Z,47.2
2018-08-04T07:21:16.323Z,48.6
2018-08-04T07:24:16.268Z,49.9
2018-08-04T07:27:16.160Z,50.8
2018-08-04T07:30:15.841Z,51.4
2018-08-04T07:33:15.841Z,52.0
2018-08-04T07:36:15.615Z,52.1
2018-08-04T07:39:15.392Z,52.2
2018-08-04T07:42:16.312Z,52.4
2018-08-04T07:45:15.360Z,52.3
2018-08-04T07:48:16.221Z,52.5
2018-08-04T07:51:16.177Z,52.3
2018-08-04T07:54:15.948Z,52.4
2018-08-04T07:57:15.681Z,52.8
2018-08-04T08:00:15.552Z,52.8
2018-08-04T08:03:15.740Z,53.3
2018-08-04T08:06:16.086Z,53.3
2018-08-04T08:09:16.481Z,54.0
2018-08-04T08:12:17.052Z,53.8
2018-08-04T08:15:16.798Z,53.8
2018-08-04T08:18:16.837Z,53.4
2018-08-04T08:21:16.694Z,54.1
2018-08-04T08:24:16.633Z,54.3
2018-08-04T08:27:16.631Z,53.8
2018-08-04T08:30:16.517Z,54.2
2018-08-04T08:33:16.434Z,54.1
2018-08-04T08:36:17.423Z,53.2
2018-08-04T08:39:17.338Z,52.0
2018-08-04T08:42:17.166Z,52.9
2018-08-04T08:45:16.971Z,52.6
2018-08-04T08:48:16.745Z,52.6
2018-08-04T08:51:16.544Z,52.8
2018-08-04T08:54:16.165Z,51.4
2018-08-04T08:57:16.545Z,51.6
2018-08-04T09:00:16.930Z,51.9
2018-08-04T09:03:16.370Z,52.0
2018-08-04T09:06:16.798Z,52.4
2018-08-04T09:09:16.465Z,53.2
2018-08-04T09:12:17.081Z,53.0
2018-08-04T09:15:16.642Z,52.1
2018-08-04T09:18:16.243Z,52.3
2018-08-04T09:21:16.911Z,52.7
2018-08-04T09:24:16.564Z,53.2
2018-08-04T09:27:16.220Z,52.9
2018-08-04T09:30:16.946Z,53.1
2018-08-04T09:33:16.531Z,52.6
2018-08-04T09:36:16.142Z,51.2
2018-08-04T09:39:16.401Z,48.9
2018-08-04T09:42:16.228Z,47.4
2018-08-04T09:45:16.165Z,47.2
2018-08-04T09:48:15.988Z,48.4
2018-08-04T09:51:15.705Z,49.0
2018-08-04T09:54:15.548Z,48.2
2018-08-04T09:57:16.331Z,47.2
2018-08-04T10:00:16.152Z,47.3
2018-08-04T10:03:16.174Z,48.9
2018-08-04T10:06:15.954Z,49.5
2018-08-04T10:09:16.337Z,50.3
2018-08-04T10:12:16.084Z,50.9
2018-08-04T10:15:15.849Z,51.9
2018-08-04T10:18:15.745Z,52.6
2018-08-04T10:21:15.531Z,51.6
2018-08-04T10:24:16.331Z,50.8
2018-08-04T10:27:16.262Z,49.9
2018-08-04T10:30:15.543Z,49.1
2018-08-04T10:33:16.399Z,48.5
2018-08-04T10:36:16.309Z,49.3
2018-08-04T10:39:16.140Z,50.0
2018-08-04T10:42:16.090Z,50.3
2018-08-04T10:45:16.070Z,51.2
2018-08-04T10:48:15.790Z,51.4
2018-08-04T10:51:15.613Z,52.2
2018-08-04T10:54:16.668Z,51.8
2018-08-04T10:57:15.778Z,51.3
2018-08-04T11:00:15.722Z,49.8
2018-08-04T11:03:15.547Z,48.7
2018-08-04T11:06:16.319Z,48.0
2018-08-04T11:09:16.206Z,47.3
2018-08-04T11:12:15.942Z,46.4
2018-08-04T11:15:15.759Z,45.9
2018-08-04T11:18:15.699Z,45.2
2018-08-04T11:21:15.485Z,44.3
2018-08-04T11:24:16.303Z,44.0
2018-08-04T11:27:16.029Z,43.7
2018-08-04T11:30:15.789Z,43.4
2018-08-04T11:33:15.511Z,43.2
2018-08-04T11:36:16.374Z,43.1
2018-08-04T11:39:16.023Z,43.4
2018-08-04T11:42:15.814Z,43.6
2018-08-04T11:45:15.526Z,43.2
2018-08-04T11:57:21.110Z,43.3
2018-08-04T12:00:15.686Z,44.0
2018-08-04T12:03:15.412Z,44.2
2018-08-04T12:06:16.282Z,43.5
2018-08-04T12:09:16.036Z,44.1
2018-08-04T12:12:15.962Z,44.4
2018-08-04T12:15:15.963Z,43.4
2018-08-04T12:18:16.048Z,43.0
2018-08-04T12:21:15.788Z,43.1
2018-08-04T12:24:15.580Z,43.1
2018-08-04T12:27:16.320Z,43.5
2018-08-04T12:30:16.075Z,43.8
2018-08-04T12:33:15.862Z,44.1
2018-08-04T12:36:15.681Z,44.5
2018-08-04T12:39:15.397Z,44.7
2018-08-04T12:42:16.178Z,44.7
2018-08-04T12:45:15.951Z,44.1
2018-08-04T12:48:15.895Z,43.6
2018-08-04T12:51:15.579Z,42.4
2018-08-04T12:54:16.428Z,42.8
2018-08-04T12:57:16.192Z,42.8
2018-08-04T13:00:16.133Z,43.1
2018-08-04T13:03:16.010Z,43.4
2018-08-04T13:06:15.725Z,42.4
2018-08-04T13:09:15.597Z,41.7
2018-08-04T13:12:15.306Z,41.2
2018-08-04T13:15:16.147Z,41.3
2018-08-04T13:18:15.968Z,41.0
2018-08-04T13:21:15.885Z,40.6
2018-08-04T13:24:15.640Z,40.7
2018-08-04T13:27:15.392Z,40.7
2018-08-04T13:30:16.290Z,41.0
2018-08-04T13:33:16.130Z,41.4
2018-08-04T13:36:15.993Z,41.4
2018-08-04T13:39:15.906Z,41.7
2018-08-04T13:42:15.771Z,41.6
2018-08-04T13:45:15.598Z,41.3
2018-08-04T13:48:16.400Z,41.0
2018-08-04T13:51:16.267Z,40.9
2018-08-04T13:54:15.975Z,40.6
2018-08-04T13:57:15.783Z,40.3
2018-08-04T14:00:15.504Z,40.2
2018-08-04T14:03:15.403Z,40.2
2018-08-04T14:06:16.183Z,40.4
2018-08-04T14:09:16.036Z,40.4
2018-08-04T14:12:15.737Z,40.2
2018-08-04T14:15:15.744Z,39.7
2018-08-04T14:18:15.532Z,39.6
2018-08-04T14:21:16.389Z,39.3
2018-08-04T14:24:16.437Z,39.3
2018-08-04T14:27:16.184Z,39.6
2018-08-04T14:30:15.958Z,39.8
2018-08-04T14:33:15.698Z,39.8
2018-08-04T14:36:16.331Z,40.0
2018-08-04T14:39:15.655Z,40.0
2018-08-04T14:42:15.831Z,40.4
2018-08-04T14:45:15.551Z,40.8
2018-08-04T14:48:15.394Z,40.8
2018-08-04T14:51:16.091Z,40.6
2018-08-04T14:54:15.998Z,40.6
2018-08-04T14:57:16.019Z,40.0
2018-08-04T15:00:16.088Z,40.0
2018-08-04T15:03:15.933Z,40.0
2018-08-04T15:06:15.799Z,39.9
2018-08-04T15:09:15.589Z,39.9
2018-08-04T15:12:16.376Z,40.0
2018-08-04T15:15:16.244Z,40.0
2018-08-04T15:18:16.104Z,39.8
2018-08-04T15:21:15.919Z,39.8
2018-08-04T15:24:15.832Z,39.7
2018-08-04T15:27:15.572Z,39.5
2018-08-04T15:30:16.259Z,39.5
2018-08-04T15:33:16.165Z,39.4
2018-08-04T15:36:16.008Z,39.3
2018-08-04T15:39:15.809Z,39.3
2018-08-04T15:42:15.618Z,39.4
2018-08-04T15:45:16.450Z,39.2
2018-08-04T15:48:16.371Z,39.1
2018-08-04T15:51:16.122Z,38.9
2018-08-04T15:54:15.996Z,38.8
2018-08-04T15:57:15.806Z,38.7
2018-08-04T16:00:15.739Z,38.6
2018-08-04T16:03:15.720Z,38.5
2018-08-04T16:06:15.536Z,38.3
2018-08-04T16:09:16.268Z,38.2
2018-08-04T16:12:16.218Z,38.1
2018-08-04T16:15:16.002Z,37.9
2018-08-04T16:18:16.099Z,37.9
2018-08-04T16:21:16.058Z,37.9
2018-08-04T16:24:16.030Z,37.8
2018-08-04T16:27:15.955Z,37.6
2018-08-04T16:30:15.768Z,37.3
2018-08-04T16:33:15.527Z,37.2
2018-08-04T16:36:15.605Z,36.9
2018-08-04T16:39:15.559Z,36.8
2018-08-04T16:42:16.454Z,36.6
2018-08-04T16:45:16.325Z,36.5
2018-08-04T16:48:16.248Z,36.3
2018-08-04T16:51:16.122Z,36.2
2018-08-04T16:54:15.939Z,36.1
2018-08-04T16:57:15.836Z,36.0
2018-08-04T17:00:15.795Z,35.9
2018-08-04T17:03:15.565Z,35.8
2018-08-04T17:06:15.586Z,35.6
2018-08-04T17:09:15.372Z,35.6
2018-08-04T17:12:16.332Z,35.6
2018-08-04T17:15:16.064Z,35.5
2018-08-04T17:18:16.218Z,35.5
2018-08-04T17:21:20.578Z,35.4
2018-08-04T17:24:16.226Z,35.3
2018-08-04T17:27:19.949Z,35.2
2018-08-04T17:30:18.020Z,35.2
2018-08-04T17:33:15.951Z,35.1
2018-08-04T17:36:15.845Z,35.1
2018-08-04T17:39:15.621Z,35.1
2018-08-04T17:42:15.364Z,35.1
2018-08-04T17:45:21.502Z,35.2
2018-08-04T17:48:21.290Z,35.1
2018-08-04T17:51:19.777Z,35.1
2018-08-04T17:54:15.540Z,35.1
2018-08-04T17:57:16.328Z,35.0
2018-08-04T18:00:16.170Z,35.0
2018-08-04T18:03:16.011Z,34.9
2018-08-04T18:06:15.870Z,34.9
2018-08-04T18:09:15.446Z,34.7
2018-08-04T18:12:16.435Z,34.6
2018-08-04T18:15:16.074Z,34.4
2018-08-04T18:18:15.922Z,34.2
2018-08-04T18:21:15.903Z,34.2
2018-08-04T18:24:15.710Z,34.0
2018-08-04T18:27:15.485Z,34.0
2018-08-04T18:30:15.489Z,33.9
2018-08-04T18:33:15.367Z,33.9
2018-08-04T18:36:16.184Z,33.9
2018-08-04T18:39:15.919Z,33.8
2018-08-04T18:42:15.782Z,33.7
2018-08-04T18:45:15.644Z,33.7
2018-08-04T18:48:15.357Z,33.6
2018-08-04T18:51:16.177Z,33.5
2018-08-04T18:54:16.121Z,33.4
2018-08-04T18:57:15.805Z,33.3
2018-08-04T19:00:15.555Z,33.2
2018-08-04T19:03:16.484Z,33.2
2018-08-04T19:06:16.469Z,33.1
2018-08-04T19:09:16.189Z,33.0
2018-08-04T19:12:15.958Z,32.9
2018-08-04T19:15:15.703Z,32.8
2018-08-04T19:18:15.660Z,32.8
2018-08-04T19:21:15.345Z,32.7
2018-08-04T19:24:16.287Z,32.7
2018-08-04T19:27:16.119Z,32.6
2018-08-04T19:30:15.966Z,32.5
2018-08-04T19:33:15.909Z,32.5
2018-08-04T19:36:15.856Z,32.4
2018-08-04T19:39:16.047Z,32.3
2018-08-04T19:42:15.861Z,32.3
2018-08-04T19:45:15.574Z,32.3
2018-08-04T19:48:16.387Z,32.2
2018-08-04T19:51:16.124Z,32.2
2018-08-04T19:54:15.978Z,32.2
2018-08-04T19:57:15.686Z,32.1
2018-08-04T20:00:15.541Z,32.1
2018-08-04T20:03:16.360Z,32.1
2018-08-04T20:06:16.226Z,32.0
2018-08-04T20:09:15.939Z,31.9
2018-08-04T20:12:15.850Z,31.8
2018-08-04T20:15:15.649Z,31.7
2018-08-04T20:18:15.418Z,31.7
2018-08-04T20:21:16.253Z,31.7
2018-08-04T20:24:16.246Z,31.6
2018-08-04T20:27:16.148Z,31.6
2018-08-04T20:30:16.025Z,31.6
2018-08-04T20:33:15.938Z,31.5
2018-08-04T20:36:15.682Z,31.5
2018-08-04T20:39:15.518Z,31.4
2018-08-04T20:42:15.397Z,31.4
2018-08-04T20:45:16.257Z,31.3
2018-08-04T20:48:16.355Z,31.2
2018-08-04T20:51:16.153Z,31.2
2018-08-04T20:54:16.025Z,31.2
2018-08-04T20:57:15.801Z,31.2
2018-08-04T21:00:15.700Z,31.1
2018-08-04T21:03:15.573Z,31.0
2018-08-04T21:06:16.293Z,31.0
2018-08-04T21:09:16.211Z,30.9
2018-08-04T21:12:15.978Z,30.8
2018-08-04T21:15:15.807Z,30.7
2018-08-04T21:18:15.623Z,30.7
2018-08-04T21:21:15.659Z,30.6
2018-08-04T21:24:15.342Z,30.5
2018-08-04T21:27:16.039Z,30.4
2018-08-04T21:30:15.745Z,30.4
2018-08-04T21:33:15.474Z,30.4
2018-08-04T21:36:15.447Z,30.3
2018-08-04T21:39:16.219Z,30.3
2018-08-04T21:42:15.789Z,30.2
2018-08-04T21:45:15.521Z,30.2
2018-08-04T21:48:16.010Z,30.1
2018-08-04T21:51:15.328Z,30.1
2018-08-04T21:54:19.917Z,30.1
2018-08-04T21:57:15.978Z,30.1
2018-08-04T22:00:15.601Z,30.1
2018-08-04T22:03:16.204Z,30.0
2018-08-04T22:06:15.853Z,30.0
2018-08-04T22:09:16.059Z,30.0
2018-08-04T22:12:16.075Z,30.0
2018-08-04T22:15:15.574Z,30.0
2018-08-04T22:18:15.323Z,30.0
2018-08-04T22:21:15.899Z,29.9
2018-08-04T22:24:15.563Z,29.9
2018-08-04T22:27:16.164Z,29.8
2018-08-04T22:30:15.856Z,29.8
2018-08-04T22:33:15.889Z,29.7
2018-08-04T22:36:15.399Z,29.7
2018-08-04T22:39:15.904Z,29.7
2018-08-04T22:42:15.588Z,29.7
2018-08-04T22:45:16.041Z,29.6
2018-08-04T22:48:15.783Z,29.6
2018-08-04T22:51:15.319Z,29.6
2018-08-04T22:54:15.106Z,29.5
2018-08-04T22:57:15.587Z,29.4
2018-08-04T23:00:15.162Z,29.4
2018-08-04T23:03:15.568Z,29.4
2018-08-04T23:06:15.040Z,29.4
2018-08-04T23:09:15.348Z,29.3
2018-08-04T23:12:15.780Z,29.3
2018-08-04T23:15:15.106Z,29.2
2018-08-04T23:18:15.667Z,29.1
2018-08-04T23:21:15.088Z,29.0
2018-08-04T23:24:15.558Z,29.0
2018-08-04T23:27:16.029Z,29.0
2018-08-04T23:30:15.511Z,29.0
2018-08-04T23:33:15.859Z,28.9
2018-08-04T23:36:15.453Z,28.9
2018-08-04T23:39:15.873Z,28.8
2018-08-04T23:42:15.261Z,28.8
2018-08-04T23:45:15.564Z,28.7
2018-08-04T23:48:16.067Z,28.7
2018-08-04T23:51:15.562Z,28.6
2018-08-04T23:54:15.994Z,28.5
2018-08-04T23:57:15.426Z,28.5
